Time;durP1;ratioP1;P1;durP2;ratioP2;P2;SDS_P1;SDS_P2;PMS_P1;PMS_P2;Temp;Humidity;BMP_temperature;BMP_pressure;BME280_temperature;BME280_humidity;BME280_pressure;Samples;Min_cycle;Max_cycle;Signal;HPM_P1;HPM_P2
2020/12/17 00:00:11;;;;;;;6.07;4.75;;;;;;;8.11;75.63;99011.09;5093707;28;20050;-69
2020/12/17 00:02:38;;;;;;;5.30;4.13;;;;;;;8.01;75.52;99003.44;5096299;28;20036;-69
2020/12/17 00:05:05;;;;;;;6.43;4.50;;;;;;;7.91;75.82;99002.78;5095427;28;20047;-68
2020/12/17 00:07:32;;;;;;;5.65;4.20;;;;;;;7.87;76.45;99001.50;5095938;28;20063;-67
2020/12/17 00:09:59;;;;;;;4.43;3.50;;;;;;;7.91;76.46;99000.16;5094493;28;20044;-67
2020/12/17 00:12:26;;;;;;;6.68;4.93;;;;;;;7.99;76.29;98997.50;5095690;28;20114;-68
2020/12/17 00:14:52;;;;;;;6.15;4.65;;;;;;;8.00;76.26;99004.41;5095390;28;20079;-68
2020/12/17 00:17:20;;;;;;;6.07;4.25;;;;;;;7.93;75.67;98996.38;5095829;28;20044;-67
2020/12/17 00:19:46;;;;;;;7.10;4.90;;;;;;;7.88;75.89;98990.81;5095284;28;20040;-68
2020/12/17 00:22:13;;;;;;;6.63;4.75;;;;;;;7.81;75.99;98995.09;5094075;28;20051;-68
2020/12/17 00:24:40;;;;;;;6.55;4.60;;;;;;;7.67;76.31;98986.13;5093664;28;20055;-68
2020/12/17 00:27:07;;;;;;;7.00;4.30;;;;;;;7.63;76.66;98994.50;5094018;28;20044;-68
2020/12/17 00:29:34;;;;;;;7.20;4.80;;;;;;;7.67;76.35;98993.16;5095151;28;20044;-67
2020/12/17 00:32:01;;;;;;;6.13;4.00;;;;;;;7.59;76.42;98983.50;5094152;28;20048;-68
2020/12/17 00:34:28;;;;;;;7.72;4.72;;;;;;;7.59;76.73;98996.66;5093649;28;20121;-69
2020/12/17 00:36:55;;;;;;;7.40;4.78;;;;;;;7.63;76.87;98995.34;5095221;28;20521;-68
2020/12/17 00:39:28;;;;;;;6.10;4.90;;;;;;;7.65;76.54;98993.34;5094917;28;20123;-68
2020/12/17 00:42:03;;;;;;;7.32;4.47;;;;;;;7.68;76.74;99002.72;5094952;28;20501;-68
2020/12/17 00:44:29;;;;;;;10.55;4.95;;;;;;;7.69;76.43;98996.47;5094644;28;20055;-68
2020/12/17 00:46:56;;;;;;;6.78;4.70;;;;;;;7.68;76.28;99000.09;5094952;28;20044;-68
2020/12/17 00:49:23;;;;;;;7.57;5.00;;;;;;;7.73;76.50;99008.28;5094964;28;20505;-68
2020/12/17 00:51:50;;;;;;;6.63;4.55;;;;;;;7.84;76.37;98997.41;5094811;28;20490;-68
2020/12/17 00:54:16;;;;;;;8.60;6.68;;;;;;;7.91;75.96;98997.53;5094385;28;20040;-68
2020/12/17 00:56:47;;;;;;;8.23;6.10;;;;;;;7.99;75.76;99000.13;5093412;28;20051;-69
2020/12/17 00:59:14;;;;;;;5.88;4.68;;;;;;;8.02;75.53;98994.53;5094518;28;20052;-69
2020/12/17 01:01:41;;;;;;;7.85;4.82;;;;;;;8.09;75.25;98997.31;5093363;28;20176;-68
2020/12/17 01:04:08;;;;;;;4.57;3.85;;;;;;;8.13;75.13;99007.31;5093119;28;20051;-68
2020/12/17 01:06:34;;;;;;;6.43;4.70;;;;;;;8.20;75.05;98999.53;5094537;28;20105;-68
2020/12/17 01:09:01;;;;;;;7.18;4.68;;;;;;;8.26;74.56;99003.31;5094603;28;20043;-68
2020/12/17 01:11:28;;;;;;;5.32;3.92;;;;;;;8.30;74.63;99001.97;5094433;28;20036;-69
2020/12/17 01:13:56;;;;;;;6.45;3.67;;;;;;;8.35;74.21;99004.91;5094164;28;20494;-69
2020/12/17 01:16:24;;;;;;;5.20;3.55;;;;;;;8.38;74.07;99008.03;5094288;28;20580;-68
2020/12/17 01:18:50;;;;;;;4.20;3.08;;;;;;;8.41;74.18;99006.88;5094436;28;20047;-68
2020/12/17 01:21:18;;;;;;;4.30;2.85;;;;;;;8.44;74.01;99007.34;5094229;28;20043;-68
2020/12/17 01:23:45;;;;;;;5.82;3.53;;;;;;;8.49;74.00;99008.63;5094464;28;20114;-68
2020/12/17 01:26:12;;;;;;;4.47;3.25;;;;;;;8.51;73.83;99004.84;5093921;28;20117;-69
2020/12/17 01:28:40;;;;;;;6.22;3.42;;;;;;;8.48;73.38;99002.53;5094148;28;20059;-68
2020/12/17 01:31:07;;;;;;;3.67;3.20;;;;;;;8.44;73.60;99002.06;5093991;28;20513;-68
2020/12/17 01:33:35;;;;;;;3.47;2.63;;;;;;;8.47;73.82;99002.72;5093821;28;20044;-68
2020/12/17 01:36:03;;;;;;;4.32;2.70;;;;;;;8.53;73.56;99008.13;5093955;28;20075;-69
2020/12/17 01:38:29;;;;;;;3.40;2.95;;;;;;;8.56;73.42;99013.03;5093940;28;20040;-68
2020/12/17 01:40:56;;;;;;;4.65;2.92;;;;;;;8.60;73.16;99013.50;5093999;28;20036;-69
2020/12/17 01:43:23;;;;;;;3.20;2.55;;;;;;;8.62;73.17;99014.97;5093719;28;20040;-68
2020/12/17 01:45:51;;;;;;;3.35;2.70;;;;;;;8.64;73.03;99020.06;5093835;28;20044;-68
2020/12/17 01:48:18;;;;;;;4.38;2.80;;;;;;;8.65;72.72;99019.91;5092571;28;20044;-68
2020/12/17 01:50:48;;;;;;;3.08;2.72;;;;;;;8.66;72.96;99021.53;5093948;28;20044;-67
2020/12/17 01:53:15;;;;;;;4.93;3.03;;;;;;;8.71;72.72;99020.19;5093765;28;20405;-67
2020/12/17 01:55:42;;;;;;;2.70;2.50;;;;;;;8.71;72.78;99013.09;5092218;28;20143;-68
2020/12/17 01:58:13;;;;;;;3.35;2.72;;;;;;;8.71;72.28;99020.19;5093993;28;20051;-67
2020/12/17 02:00:41;;;;;;;3.00;2.45;;;;;;;8.67;72.37;99015.28;5093665;28;20040;-67
2020/12/17 02:03:08;;;;;;;4.05;2.65;;;;;;;8.65;72.35;99019.91;5092316;28;20055;-67
2020/12/17 02:05:34;;;;;;;5.65;3.28;;;;;;;8.71;72.04;99022.84;5091823;28;20055;-68
2020/12/17 02:08:02;;;;;;;4.72;3.30;;;;;;;8.70;72.30;99013.28;5093511;28;20048;-67
2020/12/17 02:10:29;;;;;;;3.22;2.67;;;;;;;8.70;71.87;99015.94;5093389;28;20405;-68
2020/12/17 02:12:56;;;;;;;4.35;2.80;;;;;;;8.73;72.10;99013.75;5093348;28;20052;-68
2020/12/17 02:15:22;;;;;;;2.92;2.10;;;;;;;8.77;71.89;99014.22;5092994;28;20071;-68
2020/12/17 02:17:49;;;;;;;3.10;2.80;;;;;;;8.78;71.82;99015.88;5093589;28;20036;-68
2020/12/17 02:20:17;;;;;;;5.00;2.92;;;;;;;8.81;71.94;99012.88;5093124;28;20048;-67
2020/12/17 02:22:44;;;;;;;4.38;2.55;;;;;;;8.82;71.86;99012.69;5093180;28;20043;-67
2020/12/17 02:25:13;;;;;;;3.33;2.60;;;;;;;8.83;71.63;99016.16;5093168;28;20044;-67
2020/12/17 02:27:41;;;;;;;4.03;2.78;;;;;;;8.83;71.52;99016.16;5093328;28;20430;-68
2020/12/17 02:30:09;;;;;;;2.80;2.50;;;;;;;8.87;71.46;99014.81;5093158;28;20040;-68
2020/12/17 02:32:36;;;;;;;5.45;3.15;;;;;;;8.89;71.64;99020.72;5091799;28;20089;-67
2020/12/17 02:35:04;;;;;;;8.60;2.53;;;;;;;8.88;71.58;99016.44;5092540;28;20036;-68
2020/12/17 02:37:32;;;;;;;3.08;2.60;;;;;;;8.92;71.49;99012.47;5093532;28;20076;-67
2020/12/17 02:39:59;;;;;;;3.15;2.15;;;;;;;8.95;71.48;99012.13;5093015;28;20043;-68
2020/12/17 02:42:26;;;;;;;5.47;2.30;;;;;;;8.95;71.32;99014.75;5092843;28;20039;-68
2020/12/17 02:44:53;;;;;;;3.78;2.67;;;;;;;8.98;71.16;99006.50;5093016;28;20036;-68
2020/12/17 02:47:20;;;;;;;3.42;2.72;;;;;;;8.98;71.07;99005.66;5093161;28;20039;-68
2020/12/17 02:49:47;;;;;;;3.67;2.30;;;;;;;8.98;71.08;99003.84;5093023;28;20509;-68
2020/12/17 02:52:14;;;;;;;5.20;2.70;;;;;;;9.00;71.08;99006.31;5093494;28;20044;-69
2020/12/17 02:54:42;;;;;;;7.68;3.08;;;;;;;8.98;71.20;99005.66;5092381;28;20047;-68
2020/12/17 02:57:08;;;;;;;2.65;2.17;;;;;;;9.02;70.93;99005.13;5092676;28;20044;-68
2020/12/17 02:59:36;;;;;;;2.70;2.25;;;;;;;9.05;70.76;99003.94;5092568;28;20410;-69
2020/12/17 03:02:03;;;;;;;4.05;3.03;;;;;;;9.05;70.94;98996.84;5092752;28;20048;-68
2020/12/17 03:04:29;;;;;;;3.65;2.33;;;;;;;9.06;70.64;99005.56;5092196;28;20040;-69
2020/12/17 03:06:56;;;;;;;2.72;2.50;;;;;;;9.08;70.92;99001.78;5091247;28;20055;-69
2020/12/17 03:09:23;;;;;;;4.25;2.65;;;;;;;9.10;70.78;98994.53;5092618;28;20063;-68
2020/12/17 03:11:49;;;;;;;4.10;2.53;;;;;;;9.12;70.67;98991.69;5091186;28;20097;-69
2020/12/17 03:14:16;;;;;;;3.13;2.58;;;;;;;9.12;70.67;98996.97;5092052;28;20055;-69
2020/12/17 03:16:44;;;;;;;5.03;2.75;;;;;;;9.12;70.56;98986.41;5091148;28;20402;-69
2020/12/17 03:19:10;;;;;;;3.50;2.70;;;;;;;9.12;70.41;98986.41;5092498;28;20082;-69
2020/12/17 03:21:37;;;;;;;3.65;2.78;;;;;;;9.10;70.34;98998.94;5093161;28;20105;-69
2020/12/17 03:24:04;;;;;;;3.80;2.15;;;;;;;9.09;70.35;98990.22;5091148;28;20421;-69
2020/12/17 03:26:31;;;;;;;3.30;2.28;;;;;;;9.13;70.45;98990.69;5092964;28;20332;-69
2020/12/17 03:28:57;;;;;;;4.68;2.50;;;;;;;9.15;70.52;98996.63;5100825;28;20036;-69
2020/12/17 03:31:24;;;;;;;4.57;2.78;;;;;;;9.15;70.13;98999.25;5106335;28;20047;-69
2020/12/17 03:33:51;;;;;;;3.15;2.10;;;;;;;9.14;70.41;99002.88;5101303;28;20054;-69
2020/12/17 03:36:18;;;;;;;2.97;2.22;;;;;;;9.14;70.14;99001.09;5097291;28;20124;-69
2020/12/17 03:38:45;;;;;;;2.95;2.20;;;;;;;9.14;70.20;99000.22;5095677;28;20044;-68
2020/12/17 03:41:13;;;;;;;3.33;2.50;;;;;;;9.17;70.07;98997.25;5096882;28;20036;-69
2020/12/17 03:43:40;;;;;;;3.13;2.17;;;;;;;9.17;70.42;99000.69;5096394;28;20044;-69
2020/12/17 03:46:07;;;;;;;3.55;2.63;;;;;;;9.16;69.93;99008.81;5095405;28;20049;-69
2020/12/17 03:48:34;;;;;;;2.65;2.20;;;;;;;9.15;70.10;99009.81;5096267;28;20048;-69
2020/12/17 03:51:01;;;;;;;3.28;2.40;;;;;;;9.14;70.17;99003.72;5096749;28;20040;-68
2020/12/17 03:53:28;;;;;;;7.90;2.60;;;;;;;9.15;70.19;99010.63;5096393;28;20040;-68
2020/12/17 03:55:55;;;;;;;3.35;2.58;;;;;;;9.14;70.15;99006.34;5095093;28;20143;-69
2020/12/17 03:58:22;;;;;;;5.05;3.13;;;;;;;9.14;70.02;99009.00;5096194;28;20040;-68
2020/12/17 04:00:48;;;;;;;3.42;2.25;;;;;;;9.10;70.21;99007.72;5096208;28;20512;-69
2020/12/17 04:03:15;;;;;;;3.30;2.67;;;;;;;9.10;70.11;99001.59;5096083;28;20451;-68
2020/12/17 04:05:42;;;;;;;3.60;2.63;;;;;;;9.12;70.05;99004.88;5095764;28;20104;-68
2020/12/17 04:08:09;;;;;;;3.30;2.50;;;;;;;9.13;70.00;99011.78;5096542;28;20075;-68
2020/12/17 04:10:36;;;;;;;3.30;2.60;;;;;;;9.12;70.13;99010.16;5096116;28;20440;-68
2020/12/17 04:13:03;;;;;;;6.43;2.80;;;;;;;9.11;70.09;99019.88;5095794;28;20044;-69
2020/12/17 04:15:30;;;;;;;3.90;2.30;;;;;;;9.11;69.89;99005.88;5095458;28;20044;-68
2020/12/17 04:17:56;;;;;;;3.53;2.30;;;;;;;9.07;70.30;99018.59;5095718;28;20052;-68
2020/12/17 04:20:23;;;;;;;3.55;2.55;;;;;;;9.08;69.98;99011.50;5095625;28;20497;-69
2020/12/17 04:22:50;;;;;;;3.15;2.42;;;;;;;9.06;70.24;99010.84;5095513;28;20047;-68
2020/12/17 04:25:18;;;;;;;3.67;2.47;;;;;;;9.05;69.97;99015.31;5093779;28;20168;-68
2020/12/17 04:27:44;;;;;;;3.80;2.58;;;;;;;9.05;69.98;99014.50;5095385;28;20063;-68
2020/12/17 04:30:14;;;;;;;4.55;2.67;;;;;;;9.01;70.36;99015.84;5095435;28;20040;-68
2020/12/17 04:32:41;;;;;;;3.05;2.50;;;;;;;9.05;70.18;99012.66;5095238;28;20036;-68
2020/12/17 04:35:07;;;;;;;4.57;2.45;;;;;;;9.11;70.02;99016.44;5095295;28;20066;-68
2020/12/17 04:37:34;;;;;;;4.18;2.63;;;;;;;9.06;70.33;99021.41;5095177;28;20044;-68
2020/12/17 04:40:01;;;;;;;3.95;2.40;;;;;;;9.08;70.39;99022.88;5093825;28;20093;-68
2020/12/17 04:42:30;;;;;;;4.07;2.60;;;;;;;9.09;70.28;99011.31;5095445;28;20109;-68
2020/12/17 04:44:58;;;;;;;5.57;2.97;;;;;;;9.09;70.30;99016.59;5094372;28;20043;-69
2020/12/17 04:47:29;;;;;;;5.38;3.22;;;;;;;9.08;70.38;99022.88;5095158;28;20036;-68
2020/12/17 04:50:06;;;;;;;5.32;2.67;;;;;;;9.07;70.33;99026.50;5095085;28;20116;-69
2020/12/17 04:52:36;;;;;;;4.32;2.60;;;;;;;9.07;70.42;99023.88;5094938;28;20048;-69
2020/12/17 04:55:04;;;;;;;4.32;3.03;;;;;;;9.09;70.25;99021.06;5094612;28;20056;-68
2020/12/17 04:57:33;;;;;;;6.07;2.80;;;;;;;9.11;70.19;99029.63;5093551;28;20052;-69
2020/12/17 05:00:00;;;;;;;4.82;2.42;;;;;;;9.09;70.20;99027.16;5093288;28;20054;-69
2020/12/17 05:02:27;;;;;;;3.78;2.63;;;;;;;9.06;70.05;99030.16;5094689;28;20048;-69
2020/12/17 05:04:54;;;;;;;3.80;3.03;;;;;;;9.06;70.18;99034.59;5094151;28;20051;-68
2020/12/17 05:07:23;;;;;;;4.22;2.60;;;;;;;9.04;70.58;99037.41;5094745;28;20082;-69
2020/12/17 05:09:51;;;;;;;3.17;2.40;;;;;;;9.03;70.50;99037.59;5094600;28;20043;-68
2020/12/17 05:12:19;;;;;;;4.03;3.13;;;;;;;9.06;70.25;99043.34;5094867;28;20426;-69
2020/12/17 05:14:48;;;;;;;3.22;2.80;;;;;;;9.00;70.48;99045.84;5094606;28;20043;-69
2020/12/17 05:17:15;;;;;;;4.13;2.92;;;;;;;9.02;70.50;99047.34;5094534;28;20044;-69
2020/12/17 05:19:42;;;;;;;3.15;2.85;;;;;;;9.02;70.38;99043.84;5094785;28;20082;-68
2020/12/17 05:22:12;;;;;;;4.18;2.42;;;;;;;9.00;70.46;99044.03;5094358;28;20477;-68
2020/12/17 05:24:43;;;;;;;6.70;3.20;;;;;;;8.96;70.87;99050.66;5094061;28;20039;-70
2020/12/17 05:27:10;;;;;;;4.07;3.15;;;;;;;8.94;70.69;99055.31;5094531;28;20051;-69
2020/12/17 05:29:38;;;;;;;5.68;2.97;;;;;;;8.92;70.93;99059.91;5092882;28;20059;-69
2020/12/17 05:32:06;;;;;;;4.30;2.65;;;;;;;8.91;70.80;99060.91;5094988;28;20043;-69
2020/12/17 05:34:33;;;;;;;6.45;2.88;;;;;;;8.92;71.09;99076.56;5093879;28;20528;-69
2020/12/17 05:37:00;;;;;;;3.90;2.22;;;;;;;8.92;70.83;99084.47;5094082;28;20047;-68
2020/12/17 05:39:28;;;;;;;6.13;3.60;;;;;;;8.89;71.08;99090.06;5094076;28;20054;-69
2020/12/17 05:41:55;;;;;;;4.15;2.90;;;;;;;8.89;71.26;99089.25;5093966;28;20051;-69
2020/12/17 05:44:27;;;;;;;5.75;2.88;;;;;;;8.87;71.30;99094.72;5093653;28;20044;-69
2020/12/17 05:46:54;;;;;;;7.97;3.78;;;;;;;8.86;71.40;99092.28;5092626;28;20048;-69
2020/12/17 05:49:23;;;;;;;7.38;3.03;;;;;;;8.87;71.23;99093.91;5093748;28;20044;-69
2020/12/17 05:52:08;;;;;;;6.05;3.05;;;;;;;8.85;71.44;99098.50;5093892;28;20044;-68
2020/12/17 05:54:35;;;;;;;5.97;3.22;;;;;;;8.83;71.27;99101.34;5092109;28;20052;-68
2020/12/17 05:57:06;;;;;;;4.80;2.80;;;;;;;8.82;71.44;99110.25;5091587;28;20048;-69
2020/12/17 05:59:33;;;;;;;6.85;3.25;;;;;;;8.81;71.46;99119.13;5093593;28;20043;-69
2020/12/17 06:02:19;;;;;;;4.55;3.17;;;;;;;8.79;71.58;99109.75;5093585;28;20036;-69
2020/12/17 06:04:59;;;;;;;5.15;3.17;;;;;;;8.80;71.55;99117.50;5093345;28;20052;-69
2020/12/17 06:07:32;;;;;;;6.85;2.78;;;;;;;8.80;71.32;99124.59;5093489;28;20039;-68
2020/12/17 06:10:17;;;;;;;4.20;3.13;;;;;;;8.76;71.57;99121.47;5093653;28;20493;-68
2020/12/17 06:12:45;;;;;;;4.75;3.40;;;;;;;8.76;71.57;99118.81;5093544;28;20055;-67
2020/12/17 06:15:17;;;;;;;6.63;3.95;;;;;;;8.75;71.70;99124.28;5091627;28;20090;-67
2020/12/17 06:17:52;;;;;;;6.82;3.55;;;;;;;8.75;71.42;99127.75;5093330;28;20047;-68
2020/12/17 06:20:22;;;;;;;5.03;3.55;;;;;;;8.70;71.78;99124.81;5093280;28;20036;-68
2020/12/17 06:22:53;;;;;;;5.40;3.30;;;;;;;8.65;71.78;99135.88;5093394;28;20044;-67
2020/12/17 06:25:21;;;;;;;3.63;3.05;;;;;;;8.63;71.88;99134.38;5092876;28;20051;-67
2020/12/17 06:27:49;;;;;;;5.65;3.40;;;;;;;8.60;72.12;99140.00;5093063;28;20044;-69
2020/12/17 06:30:18;;;;;;;4.38;3.20;;;;;;;8.58;72.36;99145.44;5093024;28;20062;-67
2020/12/17 06:32:45;;;;;;;6.65;3.70;;;;;;;8.58;72.35;99144.63;5093009;28;20516;-67
2020/12/17 06:35:49;;;;;;;6.40;3.55;;;;;;;8.65;71.93;99142.94;5092658;28;20498;-68
2020/12/17 06:38:21;;;;;;;5.90;3.60;;;;;;;8.61;71.94;99153.03;5061222;28;20425;-67
2020/12/17 06:40:48;;;;;;;6.22;3.50;;;;;;;8.60;72.06;99145.25;5092665;28;20497;-67
2020/12/17 06:43:30;;;;;;;4.85;3.30;;;;;;;8.60;72.07;99156.63;5092695;28;20036;-68
2020/12/17 06:45:58;;;;;;;4.85;3.40;;;;;;;8.61;72.13;99154.81;5092672;28;20051;-67
2020/12/17 06:48:33;;;;;;;7.50;3.60;;;;;;;8.63;72.35;99161.56;5092474;28;20048;-68
2020/12/17 06:51:02;;;;;;;7.93;3.28;;;;;;;8.61;72.44;99165.34;5091357;28;20050;-68
2020/12/17 06:53:40;;;;;;;5.05;3.30;;;;;;;8.58;72.43;99166.53;5092457;28;20048;-68
2020/12/17 06:56:07;;;;;;;6.18;3.50;;;;;;;8.64;72.33;99175.56;5092770;28;20402;-68
2020/12/17 06:58:34;;;;;;;5.72;3.60;;;;;;;8.64;72.17;99175.56;5092539;28;20032;-67
2020/12/17 07:01:00;;;;;;;6.05;3.78;;;;;;;8.70;72.01;99177.53;5092644;28;20040;-66
2020/12/17 07:03:41;;;;;;;4.35;3.95;;;;;;;8.76;72.27;99181.28;5092160;28;20036;-68
2020/12/17 07:06:14;;;;;;;5.32;3.50;;;;;;;8.78;72.27;99182.75;5092427;28;20126;-67
2020/12/17 07:08:41;;;;;;;4.95;3.72;;;;;;;8.76;72.39;99189.19;5092645;28;20040;-68
2020/12/17 07:11:36;;;;;;;4.18;3.47;;;;;;;8.79;72.38;99194.13;5091403;28;20409;-68
2020/12/17 07:14:04;;;;;;;11.43;7.88;;;;;;;8.82;72.30;99199.88;5091975;28;20044;-68
2020/12/17 07:16:31;;;;;;;8.95;4.07;;;;;;;8.87;72.32;99208.09;5091252;28;20044;-68
2020/12/17 07:19:24;;;;;;;4.53;3.45;;;;;;;8.87;72.21;99209.91;5091253;28;20048;-68
2020/12/17 07:21:55;;;;;;;6.53;3.60;;;;;;;8.88;72.44;99209.72;5092080;28;20048;-67
2020/12/17 07:24:24;;;;;;;4.65;3.85;;;;;;;8.91;72.35;99213.84;5091889;28;20070;-69
2020/12/17 07:26:53;;;;;;;5.68;3.75;;;;;;;8.90;72.34;99218.28;5092163;28;20486;-67
2020/12/17 07:29:32;;;;;;;4.63;3.55;;;;;;;8.93;72.46;99228.47;5092257;28;20036;-67
2020/12/17 07:32:28;;;;;;;8.70;4.30;;;;;;;8.99;72.50;99223.53;5090917;28;20040;-68
2020/12/17 07:34:56;;;;;;;8.38;4.03;;;;;;;9.04;72.36;99223.84;5091635;28;20044;-68
2020/12/17 07:37:45;;;;;;;6.78;3.67;;;;;;;9.12;72.34;99229.88;5092151;28;20047;-68
2020/12/17 07:40:27;;;;;;;5.93;3.85;;;;;;;9.16;72.11;99231.19;5092680;28;20040;-68
2020/12/17 07:42:59;;;;;;;5.22;3.65;;;;;;;9.21;71.94;99228.03;5092059;28;20047;-67
2020/12/17 07:45:48;;;;;;;6.38;3.88;;;;;;;9.22;71.91;99232.28;5091589;28;20482;-67
2020/12/17 07:48:38;;;;;;;6.30;4.25;;;;;;;9.23;72.24;99227.88;5092128;28;20043;-67
2020/12/17 07:51:07;;;;;;;8.55;4.10;;;;;;;9.25;71.85;99226.69;5091008;28;20382;-69
2020/12/17 07:53:36;;;;;;;7.82;4.13;;;;;;;9.27;72.10;99229.97;5091711;28;20168;-69
2020/12/17 07:56:04;;;;;;;5.78;3.70;;;;;;;9.30;72.15;99237.53;5092091;28;20048;-67
2020/12/17 07:58:31;;;;;;;6.10;3.60;;;;;;;9.38;72.02;99239.28;5092135;28;20504;-67
2020/12/17 08:00:59;;;;;;;5.40;3.72;;;;;;;9.40;71.88;99235.50;5095537;28;20051;-67
2020/12/17 08:03:27;;;;;;;7.45;3.78;;;;;;;9.40;72.22;99243.41;5105543;28;20032;-68
2020/12/17 08:06:05;;;;;;;7.75;4.20;;;;;;;9.42;72.12;99238.78;5106683;28;20110;-68
2020/12/17 08:08:31;;;;;;;6.03;3.63;;;;;;;9.41;71.89;99247.69;5092880;28;20048;-67
2020/12/17 08:10:59;;;;;;;5.97;3.67;;;;;;;9.44;71.78;99254.44;5092637;28;20040;-67
2020/12/17 08:13:26;;;;;;;6.60;3.55;;;;;;;9.48;72.05;99245.19;5090542;28;20071;-67
2020/12/17 08:15:54;;;;;;;7.93;3.78;;;;;;;9.46;71.76;99260.34;5090446;28;20139;-68
2020/12/17 08:18:24;;;;;;;8.40;3.50;;;;;;;9.49;72.07;99257.38;5091935;28;20047;-70
2020/12/17 08:21:01;;;;;;;5.85;3.70;;;;;;;9.51;71.77;99265.09;5094064;28;20044;-68
2020/12/17 08:23:29;;;;;;;12.20;4.07;;;;;;;9.52;71.73;99262.31;5095431;28;20101;-69
2020/12/17 08:25:59;;;;;;;8.55;5.10;;;;;;;9.55;72.10;99275.16;5095597;28;20048;-69
2020/12/17 08:28:30;;;;;;;6.82;4.38;;;;;;;9.57;71.90;99272.34;5095622;28;20405;-69
2020/12/17 08:31:05;;;;;;;6.72;3.70;;;;;;;9.63;71.82;99277.75;5094073;28;20054;-68
2020/12/17 08:33:34;;;;;;;7.40;3.97;;;;;;;9.67;71.63;99280.84;5093874;28;20055;-69
2020/12/17 08:36:02;;;;;;;9.52;4.55;;;;;;;9.68;71.59;99285.97;5095590;28;20053;-67
2020/12/17 08:38:29;;;;;;;7.45;3.65;;;;;;;9.67;71.92;99291.41;5093831;28;20065;-69
2020/12/17 08:40:58;;;;;;;5.80;3.67;;;;;;;9.65;71.73;99298.69;5095209;28;20050;-69
2020/12/17 08:43:28;;;;;;;7.90;3.88;;;;;;;9.63;72.07;99296.25;5094878;28;20413;-68
2020/12/17 08:45:57;;;;;;;8.00;5.07;;;;;;;9.65;71.92;99310.06;5093685;28;20502;-69
2020/12/17 08:48:24;;;;;;;7.43;4.53;;;;;;;9.64;71.97;99307.63;5095120;28;20059;-69
2020/12/17 08:50:52;;;;;;;6.32;4.05;;;;;;;9.63;72.21;99311.22;5095001;28;20055;-69
2020/12/17 08:53:23;;;;;;;8.95;5.20;;;;;;;9.61;72.76;99321.16;5093309;28;20497;-69
2020/12/17 08:56:04;;;;;;;6.10;3.88;;;;;;;9.61;72.84;99329.06;5094885;28;20051;-69
2020/12/17 08:58:31;;;;;;;6.55;4.13;;;;;;;9.59;73.42;99337.19;5094935;28;20044;-69
2020/12/17 09:00:59;;;;;;;6.80;4.40;;;;;;;9.62;73.67;99336.00;5094683;28;20064;-68
2020/12/17 09:03:26;;;;;;;7.85;4.90;;;;;;;9.58;73.92;99335.50;5094833;28;20040;-69
2020/12/17 09:06:04;;;;;;;11.13;5.18;;;;;;;9.54;74.50;99346.59;5095150;28;20047;-69
2020/12/17 09:08:31;;;;;;;5.05;4.38;;;;;;;9.54;74.69;99347.41;5095028;28;20047;-68
2020/12/17 09:10:58;;;;;;;7.57;4.53;;;;;;;9.50;75.11;99351.38;5095112;28;20401;-69
2020/12/17 09:13:25;;;;;;;6.55;4.30;;;;;;;9.50;75.28;99358.47;5094092;28;20134;-68
2020/12/17 09:16:02;;;;;;;10.40;4.80;;;;;;;9.53;75.34;99358.97;5095607;28;20044;-69
2020/12/17 09:18:29;;;;;;;7.45;4.60;;;;;;;9.46;75.43;99368.56;5096252;28;20043;-69
2020/12/17 09:21:11;;;;;;;9.43;5.10;;;;;;;9.51;75.80;99378.59;5097022;28;20076;-68
2020/12/17 09:23:38;;;;;;;6.70;4.55;;;;;;;9.49;75.60;99377.97;5097244;28;20040;-69
2020/12/17 09:26:12;;;;;;;8.10;4.97;;;;;;;9.48;76.00;99394.78;5096262;28;20044;-69
2020/12/17 09:28:48;;;;;;;5.70;4.53;;;;;;;9.49;75.98;99394.63;5097357;28;20051;-69
2020/12/17 09:31:23;;;;;;;8.23;4.75;;;;;;;9.50;75.93;99395.44;5096410;28;20047;-68
2020/12/17 09:33:50;;;;;;;6.28;4.40;;;;;;;9.49;76.15;99399.06;5096985;28;20044;-69
2020/12/17 09:36:18;;;;;;;8.30;5.05;;;;;;;9.51;75.89;99408.47;5099511;28;20052;-69
2020/12/17 09:38:44;;;;;;;12.15;4.90;;;;;;;9.50;76.12;99401.53;5099355;28;20044;-69
2020/12/17 09:41:16;;;;;;;7.03;5.18;;;;;;;9.54;76.07;99402.84;5099565;28;20172;-69
2020/12/17 09:43:48;;;;;;;7.32;4.95;;;;;;;9.55;75.98;99404.50;5100108;28;20417;-69
2020/12/17 09:46:17;;;;;;;8.32;5.15;;;;;;;9.53;76.17;99408.28;5102809;28;20048;-69
2020/12/17 09:48:46;;;;;;;5.88;4.80;;;;;;;9.61;75.93;99409.09;5102797;28;20046;-69
2020/12/17 09:51:13;;;;;;;6.95;5.43;;;;;;;9.65;75.58;99412.22;5100783;28;20075;-70
2020/12/17 09:53:42;;;;;;;7.88;5.13;;;;;;;9.72;75.46;99412.34;5103386;28;20044;-69
2020/12/17 09:56:10;;;;;;;8.70;4.68;;;;;;;9.72;75.59;99415.00;5103199;28;20650;-70
2020/12/17 09:58:37;;;;;;;9.75;4.70;;;;;;;9.77;75.53;99415.28;5100146;28;20040;-70
2020/12/17 10:01:04;;;;;;;6.03;5.03;;;;;;;9.75;75.73;99417.25;5098411;28;20059;-67
2020/12/17 10:03:31;;;;;;;7.03;5.10;;;;;;;9.76;75.75;99427.69;5097347;28;20050;-70
2020/12/17 10:05:59;;;;;;;6.35;4.53;;;;;;;9.81;75.61;99421.88;5098977;28;20047;-69
2020/12/17 10:08:26;;;;;;;8.68;4.85;;;;;;;9.92;75.22;99426.78;5100334;28;20071;-70
2020/12/17 10:10:53;;;;;;;7.63;4.72;;;;;;;10.01;75.27;99425.72;5099755;28;20054;-69
2020/12/17 10:13:19;;;;;;;8.18;5.10;;;;;;;10.09;75.30;99432.78;5100151;28;20048;-70
2020/12/17 10:15:46;;;;;;;5.90;4.40;;;;;;;10.11;75.15;99436.06;5100172;28;20398;-69
2020/12/17 10:18:13;;;;;;;5.90;4.32;;;;;;;10.13;74.62;99436.72;5100057;28;20044;-70
2020/12/17 10:20:39;;;;;;;7.55;4.30;;;;;;;10.13;74.94;99444.66;5101399;28;20044;-70
2020/12/17 10:23:07;;;;;;;6.82;4.55;;;;;;;10.20;74.63;99439.47;5099709;28;20043;-69
2020/12/17 10:25:34;;;;;;;6.72;4.63;;;;;;;10.23;74.54;99434.66;5100748;28;20110;-70
2020/12/17 10:28:01;;;;;;;6.40;4.40;;;;;;;10.29;74.39;99433.19;5101529;28;20040;-69
2020/12/17 10:30:28;;;;;;;5.50;4.35;;;;;;;10.30;74.23;99434.84;5100747;28;20044;-70
2020/12/17 10:32:56;;;;;;;6.43;4.32;;;;;;;10.34;74.17;99438.78;5099930;28;20040;-69
2020/12/17 10:35:23;;;;;;;5.45;4.15;;;;;;;10.42;74.34;99430.78;5100371;28;20071;-70
2020/12/17 10:37:50;;;;;;;6.65;4.30;;;;;;;10.46;73.91;99437.38;5099795;28;20050;-70
2020/12/17 10:40:19;;;;;;;6.55;4.40;;;;;;;10.45;73.96;99448.94;5093054;28;20048;-67
2020/12/17 10:42:57;;;;;;;6.72;4.50;;;;;;;10.46;73.62;99441.84;5092444;28;20067;-67
2020/12/17 10:45:24;;;;;;;5.07;3.42;;;;;;;10.44;73.80;99454.38;5092821;28;20051;-70
2020/12/17 10:47:51;;;;;;;4.75;3.80;;;;;;;10.51;73.57;99445.59;5093131;28;20036;-70
2020/12/17 10:50:17;;;;;;;5.18;3.53;;;;;;;10.57;73.07;99451.97;5092837;28;20391;-70
2020/12/17 10:52:44;;;;;;;5.85;3.42;;;;;;;10.65;73.17;99455.41;5091527;28;20055;-68
2020/12/17 10:55:11;;;;;;;4.28;3.05;;;;;;;10.72;72.72;99452.84;5091210;28;20040;-66
2020/12/17 10:57:39;;;;;;;3.88;3.10;;;;;;;10.79;72.06;99458.28;5092647;28;20051;-69
2020/12/17 11:00:06;;;;;;;4.75;2.95;;;;;;;10.69;72.03;99455.84;5092764;28;20423;-69
2020/12/17 11:02:34;;;;;;;4.05;2.88;;;;;;;10.55;71.92;99459.28;5092546;28;20048;-68
2020/12/17 11:05:00;;;;;;;3.80;3.35;;;;;;;10.50;71.81;99459.00;5092243;28;20489;-68
2020/12/17 11:07:28;;;;;;;5.05;3.25;;;;;;;10.44;72.08;99446.47;5090970;28;20058;-68
2020/12/17 11:09:55;;;;;;;4.18;3.10;;;;;;;10.40;71.57;99451.28;5092434;28;20044;-68
2020/12/17 11:12:21;;;;;;;3.38;3.08;;;;;;;10.35;72.01;99456.28;5092641;28;20036;-69
2020/12/17 11:14:49;;;;;;;4.50;2.60;;;;;;;10.33;71.81;99453.81;5092232;28;20451;-69
2020/12/17 11:17:16;;;;;;;3.20;2.78;;;;;;;10.33;71.61;99453.81;5092560;28;20044;-69
2020/12/17 11:19:42;;;;;;;2.40;2.20;;;;;;;10.33;71.55;99450.34;5092472;28;20048;-69
2020/12/17 11:22:09;;;;;;;4.10;2.92;;;;;;;10.37;71.37;99451.66;5092179;28;20050;-68
2020/12/17 11:24:36;;;;;;;3.83;2.70;;;;;;;10.43;71.00;99458.84;5092537;28;20048;-69
2020/12/17 11:27:03;;;;;;;4.03;2.90;;;;;;;10.46;71.01;99466.44;5092389;28;20040;-69
2020/12/17 11:29:30;;;;;;;4.00;2.60;;;;;;;10.44;71.29;99462.31;5091158;28;20044;-68
2020/12/17 11:31:58;;;;;;;4.32;3.08;;;;;;;10.42;71.39;99459.88;5092205;28;20494;-69
2020/12/17 11:34:25;;;;;;;3.67;2.85;;;;;;;10.49;70.89;99455.53;5091851;28;20079;-69
2020/12/17 11:36:51;;;;;;;2.65;2.45;;;;;;;10.52;70.92;99446.41;5092219;28;20048;-68
2020/12/17 11:39:18;;;;;;;3.15;2.47;;;;;;;10.53;70.58;99448.03;5091983;28;20044;-69
2020/12/17 11:41:47;;;;;;;3.47;2.55;;;;;;;10.57;70.76;99446.69;5091911;28;20401;-69
2020/12/17 11:44:14;;;;;;;5.25;2.50;;;;;;;10.65;70.53;99451.91;5091631;28;20048;-68
2020/12/17 11:46:41;;;;;;;4.00;2.90;;;;;;;10.66;70.65;99453.59;5092075;28;20051;-69
2020/12/17 11:49:09;;;;;;;3.47;2.80;;;;;;;10.72;70.27;99450.22;5091951;28;20048;-68